Time;durP1;ratioP1;P1;durP2;ratioP2;P2;SDS_P1;SDS_P2;PMS_P1;PMS_P2;Temp;Humidity;BMP_temperature;BMP_pressure;BME280_temperature;BME280_humidity;BME280_pressure;Samples;Min_cycle;Max_cycle;Signal;HPM_P1;HPM_P2
2023/12/15 00:00:18;;;;;;;6.07;3.47;;;;;;;;;;1031328;28;20058;-76
2023/12/15 00:00:49;;;;;;;8.35;3.85;;;;;;;;;;1035519;28;20888;-76
2023/12/15 00:01:19;;;;;;;8.40;3.30;;;;;;;;;;1039908;28;20025;-76
2023/12/15 00:01:50;;;;;;;7.03;6.32;;;;;;;;;;1039627;28;20025;-76
2023/12/15 00:02:20;;;;;;;2.72;2.55;;;;;;;;;;1035642;28;20446;-77
2023/12/15 00:02:50;;;;;;;4.10;3.15;;;;;;;;;;1031485;28;20022;-76
2023/12/15 00:03:21;;;;;;;2.38;2.17;;;;;;;;;;1031715;28;20030;-76
2023/12/15 00:03:51;;;;;;;6.85;4.20;;;;;;;;;;1029252;28;20026;-76
2023/12/15 00:04:22;;;;;;;3.58;3.35;;;;;;;;;;1034579;28;20045;-76
2023/12/15 00:04:52;;;;;;;4.47;3.38;;;;;;;;;;1035743;28;20164;-76
2023/12/15 00:05:23;;;;;;;7.32;3.45;;;;;;;;;;1035499;28;20022;-76
2023/12/15 00:05:54;;;;;;;8.63;2.90;;;;;;;;;;1031524;28;20459;-76
2023/12/15 00:06:24;;;;;;;7.25;6.55;;;;;;;;;;1029641;28;20436;-77
2023/12/15 00:06:55;;;;;;;5.38;4.43;;;;;;;;;;1031659;28;20022;-77
2023/12/15 00:07:25;;;;;;;6.30;5.75;;;;;;;;;;1035783;28;20422;-76
2023/12/15 00:07:56;;;;;;;8.02;6.00;;;;;;;;;;1035900;28;20028;-76
2023/12/15 00:08:26;;;;;;;7.97;6.05;;;;;;;;;;1035788;28;20041;-76
2023/12/15 00:08:57;;;;;;;8.90;4.20;;;;;;;;;;1035513;28;20497;-76
2023/12/15 00:09:27;;;;;;;2.17;1.95;;;;;;;;;;1035697;28;20029;-76
2023/12/15 00:09:58;;;;;;;4.75;4.35;;;;;;;;;;1035856;28;20025;-76
2023/12/15 00:10:28;;;;;;;2.28;2.03;;;;;;;;;;1035358;28;20104;-76
2023/12/15 00:10:59;;;;;;;10.52;6.47;;;;;;;;;;1039631;28;20022;-76
2023/12/15 00:11:29;;;;;;;3.30;3.08;;;;;;;;;;1039613;28;20446;-76
2023/12/15 00:12:00;;;;;;;9.13;4.03;;;;;;;;;;1035692;28;20026;-76
2023/12/15 00:12:31;;;;;;;10.13;2.17;;;;;;;;;;1035437;28;20037;-76
2023/12/15 00:13:02;;;;;;;2.75;1.92;;;;;;;;;;1035772;28;20026;-76
2023/12/15 00:13:32;;;;;;;8.88;3.85;;;;;;;;;;1035603;28;20112;-76
2023/12/15 00:14:03;;;;;;;5.07;4.00;;;;;;;;;;1039891;28;20124;-76
2023/12/15 00:14:33;;;;;;;5.15;3.95;;;;;;;;;;1038711;28;20120;-76
2023/12/15 00:15:04;;;;;;;5.88;5.32;;;;;;;;;;1035869;28;20133;-76
2023/12/15 00:15:34;;;;;;;13.85;5.03;;;;;;;;;;1035435;28;20054;-76
2023/12/15 00:16:05;;;;;;;2.20;2.08;;;;;;;;;;1035703;28;20033;-76
2023/12/15 00:16:35;;;;;;;5.38;4.93;;;;;;;;;;1035505;28;20112;-76
2023/12/15 00:17:06;;;;;;;6.43;3.60;;;;;;;;;;1031544;28;20030;-76
2023/12/15 00:17:36;;;;;;;2.75;2.65;;;;;;;;;;1035574;28;20026;-76
2023/12/15 00:18:07;;;;;;;2.47;2.28;;;;;;;;;;1035620;28;20026;-76
2023/12/15 00:18:37;;;;;;;9.70;7.32;;;;;;;;;;1035608;28;20456;-76
2023/12/15 00:19:08;;;;;;;2.38;2.25;;;;;;;;;;1035232;28;20500;-76
2023/12/15 00:19:38;;;;;;;4.28;2.92;;;;;;;;;;1035516;28;20021;-76
2023/12/15 00:20:09;;;;;;;4.07;2.15;;;;;;;;;;1035507;28;20101;-76
2023/12/15 00:20:39;;;;;;;5.03;3.20;;;;;;;;;;1031261;28;20026;-76
2023/12/15 00:21:10;;;;;;;7.70;3.35;;;;;;;;;;1031243;28;20124;-76
2023/12/15 00:21:40;;;;;;;4.00;3.58;;;;;;;;;;1026933;28;20026;-76
2023/12/15 00:22:11;;;;;;;2.92;2.72;;;;;;;;;;1027541;28;20487;-76
2023/12/15 00:22:41;;;;;;;3.53;3.15;;;;;;;;;;1031581;28;20030;-76
2023/12/15 00:23:12;;;;;;;7.35;3.60;;;;;;;;;;1035505;28;20059;-76
2023/12/15 00:23:42;;;;;;;14.95;3.90;;;;;;;;;;1035855;28;20022;-76
2023/12/15 00:24:13;;;;;;;3.03;2.30;;;;;;;;;;1034953;28;20038;-76
2023/12/15 00:24:43;;;;;;;4.43;4.03;;;;;;;;;;1035533;28;20014;-76
2023/12/15 00:25:14;;;;;;;5.55;4.95;;;;;;;;;;1035463;28;20494;-76
2023/12/15 00:25:44;;;;;;;2.33;2.13;;;;;;;;;;1034857;28;20026;-76
2023/12/15 00:26:15;;;;;;;3.25;2.15;;;;;;;;;;1035431;28;20036;-76
2023/12/15 00:26:45;;;;;;;6.00;4.45;;;;;;;;;;1031338;28;20025;-76
2023/12/15 00:27:16;;;;;;;10.68;5.95;;;;;;;;;;1030732;28;20552;-76
2023/12/15 00:27:48;;;;;;;4.32;3.13;;;;;;;;;;1030626;28;20494;-76
2023/12/15 00:28:19;;;;;;;3.83;3.55;;;;;;;;;;1031107;28;20026;-76
2023/12/15 00:28:49;;;;;;;6.57;4.72;;;;;;;;;;1035489;28;20029;-76
2023/12/15 00:29:20;;;;;;;10.32;4.95;;;;;;;;;;1031600;28;20026;-76
2023/12/15 00:29:51;;;;;;;4.18;3.80;;;;;;;;;;1031324;28;20021;-76
2023/12/15 00:30:21;;;;;;;3.42;2.47;;;;;;;;;;1031505;28;20088;-76
2023/12/15 00:30:51;;;;;;;25.92;4.35;;;;;;;;;;1031247;28;20030;-76
2023/12/15 00:31:22;;;;;;;8.88;4.15;;;;;;;;;;1031652;28;20108;-76
2023/12/15 00:31:52;;;;;;;8.77;5.22;;;;;;;;;;1034497;28;20021;-76
2023/12/15 00:32:24;;;;;;;9.32;8.52;;;;;;;;;;1035152;28;20056;-76
2023/12/15 00:32:54;;;;;;;2.85;2.65;;;;;;;;;;1035871;28;20382;-75
2023/12/15 00:33:24;;;;;;;13.43;5.05;;;;;;;;;;1035546;28;20045;-76
2023/12/15 00:33:55;;;;;;;2.83;2.63;;;;;;;;;;1035498;28;20033;-76
2023/12/15 00:34:25;;;;;;;3.42;2.95;;;;;;;;;;1035450;28;20387;-75
2023/12/15 00:34:56;;;;;;;5.75;2.35;;;;;;;;;;1035412;28;20026;-76
2023/12/15 00:35:26;;;;;;;2.95;1.95;;;;;;;;;;1039494;28;20061;-76
2023/12/15 00:35:58;;;;;;;4.97;4.55;;;;;;;;;;1037232;28;20089;-75
2023/12/15 00:36:29;;;;;;;8.95;6.40;;;;;;;;;;1036757;28;20068;-76
2023/12/15 00:36:59;;;;;;;3.00;2.67;;;;;;;;;;1036323;28;20044;-76
2023/12/15 00:37:29;;;;;;;1.75;1.60;;;;;;;;;;1031524;28;20031;-75
2023/12/15 00:38:00;;;;;;;2.40;1.88;;;;;;;;;;1031610;28;20029;-76
2023/12/15 00:38:30;;;;;;;1.20;1.20;;;;;;;;;;1031222;28;20026;-75
2023/12/15 00:39:01;;;;;;;11.13;4.50;;;;;;;;;;1031622;28;20068;-76
2023/12/15 00:39:35;;;;;;;5.50;3.50;;;;;;;;;;1035416;28;20021;-75
2023/12/15 00:40:06;;;;;;;3.78;3.45;;;;;;;;;;1035817;28;20367;-76
2023/12/15 00:40:37;;;;;;;4.18;3.08;;;;;;;;;;1035603;28;20030;-75
2023/12/15 00:41:07;;;;;;;6.28;4.43;;;;;;;;;;1035774;28;20021;-76
2023/12/15 00:41:38;;;;;;;11.15;4.47;;;;;;;;;;1035912;28;20053;-76
2023/12/15 00:42:08;;;;;;;3.22;2.75;;;;;;;;;;1035771;28;20057;-75
2023/12/15 00:42:38;;;;;;;9.57;2.45;;;;;;;;;;1035320;28;20152;-75
2023/12/15 00:43:09;;;;;;;8.38;5.80;;;;;;;;;;1035449;28;20093;-76
2023/12/15 00:43:39;;;;;;;3.55;2.55;;;;;;;;;;1035443;28;20053;-75
2023/12/15 00:44:10;;;;;;;6.55;3.22;;;;;;;;;;1035581;28;20045;-76
2023/12/15 00:44:40;;;;;;;5.53;2.45;;;;;;;;;;1039669;28;20020;-76
2023/12/15 00:45:11;;;;;;;7.85;4.85;;;;;;;;;;1035679;28;20032;-75
2023/12/15 00:45:42;;;;;;;3.45;3.13;;;;;;;;;;1035332;28;20021;-75
2023/12/15 00:46:12;;;;;;;1.75;1.65;;;;;;;;;;1035293;28;20026;-76
2023/12/15 00:46:43;;;;;;;5.03;4.53;;;;;;;;;;1035456;28;20054;-76
2023/12/15 00:47:14;;;;;;;5.72;3.80;;;;;;;;;;1035033;28;20022;-75
2023/12/15 00:47:45;;;;;;;10.10;5.05;;;;;;;;;;1034976;28;20022;-75
2023/12/15 00:48:15;;;;;;;4.25;2.60;;;;;;;;;;1035420;28;20096;-75
2023/12/15 00:48:46;;;;;;;4.05;3.75;;;;;;;;;;1035448;28;20025;-75
2023/12/15 00:49:16;;;;;;;5.63;3.35;;;;;;;;;;1033331;28;20034;-76
2023/12/15 00:49:47;;;;;;;5.38;4.88;;;;;;;;;;1033322;28;20068;-75
2023/12/15 00:50:17;;;;;;;4.22;3.72;;;;;;;;;;1035810;28;20018;-75
2023/12/15 00:50:48;;;;;;;6.95;6.40;;;;;;;;;;1035236;28;20105;-75
2023/12/15 00:51:18;;;;;;;2.92;2.70;;;;;;;;;;1034557;28;20025;-75
2023/12/15 00:51:49;;;;;;;3.58;2.83;;;;;;;;;;1035555;28;20022;-75
2023/12/15 00:52:19;;;;;;;4.80;4.35;;;;;;;;;;1035265;28;20120;-76
2023/12/15 00:52:49;;;;;;;4.65;4.25;;;;;;;;;;1035515;28;20021;-75
2023/12/15 00:53:20;;;;;;;5.57;5.05;;;;;;;;;;1035200;28;20112;-76
2023/12/15 00:53:50;;;;;;;2.92;2.45;;;;;;;;;;1035181;28;20044;-76
2023/12/15 00:54:21;;;;;;;6.60;3.45;;;;;;;;;;1035585;28;20037;-75
2023/12/15 00:54:51;;;;;;;1.92;1.83;;;;;;;;;;1035020;28;20026;-76
2023/12/15 00:55:22;;;;;;;5.25;4.32;;;;;;;;;;1034616;28;20025;-76
2023/12/15 00:55:52;;;;;;;6.65;4.40;;;;;;;;;;1035279;28;20380;-76
2023/12/15 00:56:23;;;;;;;4.03;2.72;;;;;;;;;;1035178;28;20466;-76
2023/12/15 00:56:53;;;;;;;2.92;2.75;;;;;;;;;;1035653;28;20022;-76
2023/12/15 00:57:23;;;;;;;4.93;4.45;;;;;;;;;;1035604;28;20057;-75
2023/12/15 00:57:54;;;;;;;7.13;5.40;;;;;;;;;;1035349;28;20412;-75
2023/12/15 00:58:24;;;;;;;15.90;5.07;;;;;;;;;;1038490;28;20029;-76
2023/12/15 00:58:55;;;;;;;4.38;4.00;;;;;;;;;;1039493;28;20477;-75
2023/12/15 00:59:26;;;;;;;7.13;5.30;;;;;;;;;;1039271;28;20370;-75
2023/12/15 00:59:56;;;;;;;7.38;2.88;;;;;;;;;;1039287;28;20029;-76
2023/12/15 01:00:27;;;;;;;10.05;4.53;;;;;;;;;;1035336;28;20118;-75
2023/12/15 01:00:57;;;;;;;1.88;1.77;;;;;;;;;;1035328;28;20018;-75
2023/12/15 01:01:28;;;;;;;4.85;4.45;;;;;;;;;;1035192;28;20029;-75
2023/12/15 01:01:58;;;;;;;1.42;1.33;;;;;;;;;;1035504;28;20022;-76
2023/12/15 01:02:29;;;;;;;4.10;3.42;;;;;;;;;;1035301;28;20038;-76
2023/12/15 01:02:59;;;;;;;2.15;1.95;;;;;;;;;;1035809;28;20014;-76
2023/12/15 01:03:30;;;;;;;12.93;4.55;;;;;;;;;;1034249;28;20029;-75
2023/12/15 01:04:01;;;;;;;7.32;5.30;;;;;;;;;;1029653;28;20461;-76
2023/12/15 01:04:32;;;;;;;8.00;4.20;;;;;;;;;;1031156;28;20057;-75
2023/12/15 01:05:02;;;;;;;4.20;3.17;;;;;;;;;;1027495;28;20479;-76
2023/12/15 01:05:32;;;;;;;3.28;2.97;;;;;;;;;;1031027;28;20033;-76
2023/12/15 01:06:03;;;;;;;3.33;2.03;;;;;;;;;;1035544;28;20030;-76
2023/12/15 01:06:33;;;;;;;6.28;4.88;;;;;;;;;;1030130;28;20953;-76
2023/12/15 01:07:04;;;;;;;3.75;3.45;;;;;;;;;;1035497;28;20068;-75
2023/12/15 01:07:34;;;;;;;6.32;3.92;;;;;;;;;;1031100;28;20026;-75
2023/12/15 01:08:05;;;;;;;7.78;3.63;;;;;;;;;;1027318;28;20026;-75
2023/12/15 01:08:35;;;;;;;6.00;3.80;;;;;;;;;;1029431;28;20372;-75
2023/12/15 01:09:06;;;;;;;3.15;2.90;;;;;;;;;;1030436;28;20423;-75
2023/12/15 01:09:37;;;;;;;3.67;2.45;;;;;;;;;;1033914;28;20041;-76
2023/12/15 01:10:08;;;;;;;2.80;2.60;;;;;;;;;;1034123;28;20021;-76
2023/12/15 01:10:38;;;;;;;6.30;3.65;;;;;;;;;;1034883;28;20101;-76
2023/12/15 01:11:09;;;;;;;19.75;3.85;;;;;;;;;;1035673;28;20480;-76
2023/12/15 01:11:39;;;;;;;4.82;2.60;;;;;;;;;;1032617;28;20022;-75
2023/12/15 01:12:10;;;;;;;7.78;6.07;;;;;;;;;;1033419;28;20030;-75
2023/12/15 01:12:40;;;;;;;4.47;3.90;;;;;;;;;;1035321;28;20026;-76
2023/12/15 01:13:11;;;;;;;4.80;3.60;;;;;;;;;;1035600;28;20029;-76
2023/12/15 01:13:41;;;;;;;5.15;2.97;;;;;;;;;;1038844;28;20032;-76
2023/12/15 01:14:12;;;;;;;1.88;1.77;;;;;;;;;;1035325;28;20033;-75
2023/12/15 01:14:43;;;;;;;2.28;2.08;;;;;;;;;;1034383;28;20443;-76
2023/12/15 01:15:13;;;;;;;10.13;5.82;;;;;;;;;;1034712;28;20022;-76
2023/12/15 01:15:43;;;;;;;3.22;2.95;;;;;;;;;;1034034;28;20022;-76
2023/12/15 01:16:14;;;;;;;7.70;4.05;;;;;;;;;;1034369;28;20026;-76
2023/12/15 01:16:48;;;;;;;8.07;4.53;;;;;;;;;;1034853;28;20723;-76
2023/12/15 01:17:19;;;;;;;6.13;3.50;;;;;;;;;;1034210;28;20409;-76
2023/12/15 01:17:49;;;;;;;3.15;2.58;;;;;;;;;;1035254;28;20028;-76
2023/12/15 01:18:20;;;;;;;3.50;2.72;;;;;;;;;;1035117;28;20025;-76
2023/12/15 01:18:50;;;;;;;6.88;3.47;;;;;;;;;;1035015;28;20021;-76
2023/12/15 01:19:21;;;;;;;4.38;2.83;;;;;;;;;;1035064;28;20053;-76
2023/12/15 01:19:51;;;;;;;4.10;3.15;;;;;;;;;;1034310;28;20026;-76
2023/12/15 01:20:22;;;;;;;2.30;2.08;;;;;;;;;;1028892;28;20053;-76
2023/12/15 01:20:52;;;;;;;4.50;4.07;;;;;;;;;;1034921;28;20564;-76
2023/12/15 01:21:23;;;;;;;14.60;5.78;;;;;;;;;;1034028;28;20021;-76
2023/12/15 01:21:53;;;;;;;8.00;3.40;;;;;;;;;;1035018;28;20033;-76
2023/12/15 01:22:24;;;;;;;7.13;6.28;;;;;;;;;;1034754;28;20057;-76
2023/12/15 01:22:54;;;;;;;7.22;3.25;;;;;;;;;;1034924;28;20045;-75
2023/12/15 01:23:25;;;;;;;11.77;6.68;;;;;;;;;;1035083;28;20033;-76
2023/12/15 01:23:55;;;;;;;5.00;3.03;;;;;;;;;;1035493;28;20026;-75
2023/12/15 01:24:25;;;;;;;2.85;2.47;;;;;;;;;;1035528;28;20033;-76
2023/12/15 01:24:56;;;;;;;2.40;2.22;;;;;;;;;;1034864;28;20029;-76
2023/12/15 01:25:26;;;;;;;3.22;3.03;;;;;;;;;;1034699;28;20107;-76
2023/12/15 01:25:57;;;;;;;13.13;2.70;;;;;;;;;;1035750;28;20041;-76
2023/12/15 01:26:27;;;;;;;5.43;2.42;;;;;;;;;;1032565;28;20640;-76
2023/12/15 01:26:58;;;;;;;2.53;2.10;;;;;;;;;;1034095;28;20075;-76
2023/12/15 01:27:28;;;;;;;17.20;4.85;;;;;;;;;;1031789;28;20026;-77
2023/12/15 01:27:59;;;;;;;2.75;2.55;;;;;;;;;;1034086;28;20520;-77
2023/12/15 01:28:29;;;;;;;3.97;2.45;;;;;;;;;;1032027;28;20144;-77
2023/12/15 01:29:02;;;;;;;12.35;5.15;;;;;;;;;;1035513;28;20026;-76
2023/12/15 01:29:33;;;;;;;2.80;2.50;;;;;;;;;;1031864;28;20172;-77
2023/12/15 01:30:04;;;;;;;2.65;1.95;;;;;;;;;;1032302;28;20025;-77
2023/12/15 01:30:35;;;;;;;1.48;1.38;;;;;;;;;;1034508;28;20049;-77
2023/12/15 01:31:05;;;;;;;3.20;2.45;;;;;;;;;;1033627;28;20026;-77
2023/12/15 01:31:36;;;;;;;4.60;3.45;;;;;;;;;;1032605;28;20022;-76
2023/12/15 01:32:06;;;;;;;6.40;4.75;;;;;;;;;;1032087;28;20394;-77
2023/12/15 01:32:37;;;;;;;4.40;3.58;;;;;;;;;;1033897;28;20021;-76
2023/12/15 01:33:07;;;;;;;6.45;5.03;;;;;;;;;;1031077;28;20034;-77
2023/12/15 01:33:40;;;;;;;10.00;7.45;;;;;;;;;;1034107;28;20537;-76
2023/12/15 01:34:10;;;;;;;2.85;2.67;;;;;;;;;;1031253;28;20114;-76
2023/12/15 01:34:41;;;;;;;3.90;2.47;;;;;;;;;;1032600;28;20095;-76
2023/12/15 01:35:11;;;;;;;7.18;6.20;;;;;;;;;;1029757;28;20045;-76
2023/12/15 01:35:42;;;;;;;3.03;2.60;;;;;;;;;;1032219;28;20033;-76
2023/12/15 01:36:12;;;;;;;2.55;2.42;;;;;;;;;;1030327;28;20033;-76
2023/12/15 01:36:43;;;;;;;4.25;3.97;;;;;;;;;;1031679;28;20077;-76
2023/12/15 01:37:13;;;;;;;2.45;2.35;;;;;;;;;;1032743;28;20470;-76
2023/12/15 01:37:44;;;;;;;8.38;4.88;;;;;;;;;;1032682;28;20042;-76
2023/12/15 01:38:14;;;;;;;7.35;4.05;;;;;;;;;;1028300;28;20407;-77
2023/12/15 01:38:45;;;;;;;4.22;3.33;;;;;;;;;;1031879;28;20036;-76
2023/12/15 01:39:15;;;;;;;3.60;3.20;;;;;;;;;;1034076;28;20018;-77
2023/12/15 01:39:46;;;;;;;5.60;5.07;;;;;;;;;;1032122;28;20068;-74
2023/12/15 01:40:16;;;;;;;4.28;3.92;;;;;;;;;;1033500;28;20017;-75
2023/12/15 01:40:47;;;;;;;5.63;5.30;;;;;;;;;;1031222;28;20145;-75
2023/12/15 01:41:17;;;;;;;3.85;2.90;;;;;;;;;;1032451;28;20025;-76
2023/12/15 01:41:48;;;;;;;6.45;3.92;;;;;;;;;;1033709;28;20033;-76
2023/12/15 01:42:19;;;;;;;1.70;1.60;;;;;;;;;;1035320;28;20141;-75
2023/12/15 01:42:49;;;;;;;4.05;3.78;;;;;;;;;;1032013;28;20083;-75
2023/12/15 01:43:20;;;;;;;2.90;2.70;;;;;;;;;;1030664;28;20034;-76
2023/12/15 01:43:50;;;;;;;5.35;2.50;;;;;;;;;;1027074;28;20415;-75
2023/12/15 01:44:21;;;;;;;1.38;1.30;;;;;;;;;;1027458;28;21331;-76
2023/12/15 01:44:52;;;;;;;3.42;3.25;;;;;;;;;;1031208;28;20025;-75
2023/12/15 01:45:22;;;;;;;3.92;3.65;;;;;;;;;;1030948;28;20025;-75
2023/12/15 01:45:52;;;;;;;4.18;3.85;;;;;;;;;;1032713;28;20478;-75
2023/12/15 01:46:23;;;;;;;4.03;3.72;;;;;;;;;;1031445;28;20369;-75
2023/12/15 01:46:53;;;;;;;9.55;6.25;;;;;;;;;;1034242;28;20018;-75
2023/12/15 01:47:24;;;;;;;3.15;2.85;;;;;;;;;;1030689;28;20037;-74
2023/12/15 01:47:55;;;;;;;5.40;3.75;;;;;;;;;;1036016;28;20021;-75
2023/12/15 01:48:26;;;;;;;38.67;6.03;;;;;;;;;;1031901;28;20030;-76
2023/12/15 01:48:57;;;;;;;5.80;4.93;;;;;;;;;;1031715;28;20026;-76
2023/12/15 01:49:31;;;;;;;7.18;3.58;;;;;;;;;;1028177;28;20464;-76
2023/12/15 01:50:02;;;;;;;2.42;2.25;;;;;;;;;;1026587;28;20117;-75
2023/12/15 01:50:32;;;;;;;10.93;4.05;;;;;;;;;;1031677;28;20029;-75
2023/12/15 01:51:03;;;;;;;2.63;2.42;;;;;;;;;;1029418;28;20029;-75
2023/12/15 01:51:33;;;;;;;10.80;5.30;;;;;;;;;;1032601;28;20053;-76
2023/12/15 01:52:04;;;;;;;5.57;5.18;;;;;;;;;;1032500;28;20030;-76
2023/12/15 01:52:35;;;;;;;10.10;5.00;;;;;;;;;;1032288;28;20034;-76
2023/12/15 01:53:05;;;;;;;12.75;4.93;;;;;;;;;;1032222;28;20391;-75
2023/12/15 01:53:36;;;;;;;8.85;6.60;;;;;;;;;;1033736;28;20064;-75
2023/12/15 01:54:07;;;;;;;3.05;2.83;;;;;;;;;;1034425;28;20025;-75
2023/12/15 01:54:37;;;;;;;2.05;1.95;;;;;;;;;;1033721;28;20057;-77
2023/12/15 01:55:08;;;;;;;10.70;5.63;;;;;;;;;;1031400;28;20422;-76
2023/12/15 01:55:38;;;;;;;4.38;3.97;;;;;;;;;;1031833;28;20038;-76
2023/12/15 01:56:09;;;;;;;7.85;4.95;;;;;;;;;;1031113;28;20459;-76
2023/12/15 01:56:40;;;;;;;17.80;5.20;;;;;;;;;;1031842;28;20148;-76
2023/12/15 01:57:10;;;;;;;8.82;6.35;;;;;;;;;;1030586;28;20030;-76
2023/12/15 01:57:42;;;;;;;8.85;2.85;;;;;;;;;;1030281;28;20460;-76
2023/12/15 01:58:12;;;;;;;8.52;4.13;;;;;;;;;;1035006;28;20030;-76
2023/12/15 01:58:43;;;;;;;19.40;9.95;;;;;;;;;;1034691;28;20067;-76
2023/12/15 01:59:13;;;;;;;21.50;6.30;;;;;;;;;;1036897;28;20080;-77
2023/12/15 01:59:49;;;;;;;8.27;4.15;;;;;;;;;;1031750;28;20109;-76
2023/12/15 02:00:19;;;;;;;8.60;6.53;;;;;;;;;;1028564;28;20089;-76
2023/12/15 02:00:49;;;;;;;11.70;4.38;;;;;;;;;;1028962;28;20070;-77
2023/12/15 02:01:20;;;;;;;4.07;3.63;;;;;;;;;;1029913;28;20030;-77
2023/12/15 02:01:50;;;;;;;7.65;6.97;;;;;;;;;;1032571;28;20022;-77
2023/12/15 02:02:21;;;;;;;4.63;4.30;;;;;;;;;;1036417;28;20026;-77
2023/12/15 02:02:51;;;;;;;6.75;4.18;;;;;;;;;;1039324;28;20960;-76
2023/12/15 02:03:22;;;;;;;9.40;8.57;;;;;;;;;;1035516;28;20120;-77
2023/12/15 02:03:52;;;;;;;11.80;5.10;;;;;;;;;;1032274;28;20972;-76
2023/12/15 02:04:23;;;;;;;15.68;5.70;;;;;;;;;;1031823;28;20600;-76
2023/12/15 02:04:56;;;;;;;3.80;3.47;;;;;;;;;;1033366;28;20033;-76
2023/12/15 02:05:26;;;;;;;6.13;4.47;;;;;;;;;;1030015;28;20042;-75
2023/12/15 02:05:57;;;;;;;1.35;1.30;;;;;;;;;;1032115;28;20014;-76
2023/12/15 02:06:27;;;;;;;5.43;3.33;;;;;;;;;;1033726;28;20022;-75
2023/12/15 02:06:58;;;;;;;2.53;2.33;;;;;;;;;;1036793;28;20022;-75
2023/12/15 02:07:28;;;;;;;9.25;6.10;;;;;;;;;;1037256;28;20064;-75
2023/12/15 02:08:00;;;;;;;4.65;4.18;;;;;;;;;;1031466;28;20443;-78
2023/12/15 02:08:31;;;;;;;7.32;4.72;;;;;;;;;;1025454;28;20034;-75
2023/12/15 02:09:01;;;;;;;18.33;11.05;;;;;;;;;;1023132;28;20031;-75
2023/12/15 02:09:32;;;;;;;4.00;3.03;;;;;;;;;;1025169;28;20027;-76
2023/12/15 02:10:03;;;;;;;10.25;5.40;;;;;;;;;;1028447;28;20349;-76
2023/12/15 02:10:38;;;;;;;5.90;5.43;;;;;;;;;;1038439;28;20571;-76
2023/12/15 02:11:08;;;;;;;5.22;4.80;;;;;;;;;;1032283;28;20026;-76
2023/12/15 02:11:39;;;;;;;16.52;7.32;;;;;;;;;;1034928;28;20089;-75
2023/12/15 02:12:09;;;;;;;8.50;5.30;;;;;;;;;;1030833;28;20108;-76
2023/12/15 02:12:39;;;;;;;9.73;5.57;;;;;;;;;;1031043;28;20036;-75
2023/12/15 02:13:10;;;;;;;5.28;4.28;;;;;;;;;;1031886;28;20032;-76
2023/12/15 02:13:40;;;;;;;6.60;5.15;;;;;;;;;;1034189;28;20029;-76
2023/12/15 02:14:11;;;;;;;16.67;5.55;;;;;;;;;;1030356;28;20018;-76
2023/12/15 02:14:43;;;;;;;5.65;5.15;;;;;;;;;;1031357;28;20692;-76
2023/12/15 02:15:14;;;;;;;6.28;4.95;;;;;;;;;;1029915;28;20041;-76
2023/12/15 02:15:45;;;;;;;34.67;8.80;;;;;;;;;;1030263;28;20037;-76
2023/12/15 02:16:16;;;;;;;14.85;8.82;;;;;;;;;;1032426;28;20513;-76
2023/12/15 02:16:46;;;;;;;4.70;4.18;;;;;;;;;;1034548;28;20037;-76
2023/12/15 02:17:17;;;;;;;5.32;4.15;;;;;;;;;;1033296;28;20104;-76
2023/12/15 02:17:47;;;;;;;10.30;9.35;;;;;;;;;;1031484;28;20021;-76
2023/12/15 02:18:18;;;;;;;10.52;9.40;;;;;;;;;;1031976;28;20018;-76
2023/12/15 02:18:48;;;;;;;3.63;3.08;;;;;;;;;;1034140;28;20019;-76
2023/12/15 02:19:18;;;;;;;5.75;4.70;;;;;;;;;;1034612;28;20022;-76
2023/12/15 02:19:49;;;;;;;8.30;3.97;;;;;;;;;;1030498;28;20037;-75
2023/12/15 02:20:19;;;;;;;11.68;6.35;;;;;;;;;;1032364;28;20844;-76
2023/12/15 02:20:50;;;;;;;6.45;5.80;;;;;;;;;;1031796;28;20141;-76
2023/12/15 02:21:20;;;;;;;9.27;6.95;;;;;;;;;;1032178;28;20033;-76
2023/12/15 02:21:51;;;;;;;9.50;5.97;;;;;;;;;;1032497;28;20030;-76
2023/12/15 02:22:24;;;;;;;6.70;6.05;;;;;;;;;;1033644;28;20029;-77
2023/12/15 02:22:57;;;;;;;11.95;6.22;;;;;;;;;;1032242;28;20037;-76
2023/12/15 02:23:27;;;;;;;13.57;7.53;;;;;;;;;;1028395;28;20037;-76
2023/12/15 02:23:58;;;;;;;7.45;5.10;;;;;;;;;;1027117;28;20026;-75
2023/12/15 02:24:28;;;;;;;14.20;8.52;;;;;;;;;;1027207;28;20088;-76
2023/12/15 02:24:59;;;;;;;7.75;5.85;;;;;;;;;;1027064;28;20033;-76
2023/12/15 02:25:29;;;;;;;10.45;5.75;;;;;;;;;;1030882;28;20613;-76
2023/12/15 02:26:00;;;;;;;7.30;6.47;;;;;;;;;;1032624;28;20031;-76
2023/12/15 02:26:30;;;;;;;26.80;9.77;;;;;;;;;;1032756;28;20029;-76
2023/12/15 02:27:01;;;;;;;7.75;5.53;;;;;;;;;;1031639;28;20148;-76
2023/12/15 02:27:32;;;;;;;15.90;9.38;;;;;;;;;;1033435;28;20030;-76
2023/12/15 02:28:03;;;;;;;8.55;7.68;;;;;;;;;;1030228;28;20339;-76
2023/12/15 02:28:34;;;;;;;7.18;3.60;;;;;;;;;;1033010;28;20037;-76
2023/12/15 02:29:04;;;;;;;7.60;6.28;;;;;;;;;;1033326;28;20017;-76
2023/12/15 02:29:35;;;;;;;11.35;4.25;;;;;;;;;;1030679;28;20034;-77
2023/12/15 02:30:06;;;;;;;13.35;7.95;;;;;;;;;;1031131;28;20027;-76
2023/12/15 02:30:36;;;;;;;17.95;9.30;;;;;;;;;;1032496;28;20521;-76
2023/12/15 02:31:06;;;;;;;11.30;8.98;;;;;;;;;;1031944;28;20026;-76
2023/12/15 02:31:37;;;;;;;5.95;5.47;;;;;;;;;;1033300;28;20363;-76
2023/12/15 02:32:07;;;;;;;28.60;5.78;;;;;;;;;;1032927;28;20049;-77
2023/12/15 02:32:38;;;;;;;7.13;5.63;;;;;;;;;;1031627;28;20022;-76
2023/12/15 02:33:11;;;;;;;22.85;6.63;;;;;;;;;;1030080;28;20037;-76
2023/12/15 02:33:41;;;;;;;3.08;2.88;;;;;;;;;;1030524;28;20112;-77
2023/12/15 02:34:12;;;;;;;9.90;6.65;;;;;;;;;;1032512;28;20026;-75
2023/12/15 02:34:42;;;;;;;5.57;5.18;;;;;;;;;;1034390;28;20029;-76
2023/12/15 02:35:14;;;;;;;4.13;3.17;;;;;;;;;;1031438;28;20033;-76
2023/12/15 02:35:47;;;;;;;3.53;3.33;;;;;;;;;;1031340;28;20018;-76
2023/12/15 02:36:21;;;;;;;3.25;3.05;;;;;;;;;;1031067;28;20088;-76
2023/12/15 02:36:52;;;;;;;6.90;4.95;;;;;;;;;;1033411;28;20030;-77
2023/12/15 02:37:22;;;;;;;9.23;6.03;;;;;;;;;;1032617;28;20030;-78
2023/12/15 02:37:53;;;;;;;3.00;2.80;;;;;;;;;;1033563;28;20014;-76
2023/12/15 02:38:23;;;;;;;3.15;2.83;;;;;;;;;;1028060;28;20381;-76
2023/12/15 02:38:54;;;;;;;12.43;5.75;;;;;;;;;;1026730;28;20117;-77
2023/12/15 02:39:24;;;;;;;13.10;7.05;;;;;;;;;;1025883;28;20358;-77
2023/12/15 02:39:54;;;;;;;11.70;6.88;;;;;;;;;;1027684;28;20113;-76
2023/12/15 02:40:25;;;;;;;6.65;2.38;;;;;;;;;;1031015;28;20630;-77
2023/12/15 02:40:55;;;;;;;6.63;6.03;;;;;;;;;;1030791;28;20080;-77
2023/12/15 02:41:26;;;;;;;12.68;6.43;;;;;;;;;;1031877;28;20038;-76
2023/12/15 02:41:56;;;;;;;19.42;5.45;;;;;;;;;;1034315;28;20498;-76
2023/12/15 02:42:27;;;;;;;19.35;6.55;;;;;;;;;;1031172;28;20510;-77
2023/12/15 02:42:58;;;;;;;17.17;4.60;;;;;;;;;;1031159;28;20019;-77
2023/12/15 02:43:28;;;;;;;6.85;6.18;;;;;;;;;;1028266;28;20118;-77
2023/12/15 02:43:59;;;;;;;8.40;7.72;;;;;;;;;;1033519;28;20029;-76
2023/12/15 02:44:29;;;;;;;14.65;4.55;;;;;;;;;;1030312;28;20026;-77
2023/12/15 02:45:01;;;;;;;5.57;4.32;;;;;;;;;;1029360;28;20037;-77
2023/12/15 02:45:31;;;;;;;9.95;6.25;;;;;;;;;;1030806;28;20030;-78
2023/12/15 02:46:02;;;;;;;18.17;9.68;;;;;;;;;;1030519;28;20022;-76
2023/12/15 02:46:36;;;;;;;11.85;5.80;;;;;;;;;;1030531;28;20021;-76
2023/12/15 02:47:06;;;;;;;17.63;7.40;;;;;;;;;;1029549;28;20034;-77
2023/12/15 02:47:37;;;;;;;3.80;3.50;;;;;;;;;;1031276;28;20034;-77
2023/12/15 02:48:07;;;;;;;28.02;7.93;;;;;;;;;;1027634;28;20034;-77
2023/12/15 02:48:37;;;;;;;8.38;6.55;;;;;;;;;;1028581;28;20038;-76
2023/12/15 02:49:08;;;;;;;21.13;7.18;;;;;;;;;;1031045;28;20446;-76
2023/12/15 02:49:39;;;;;;;4.35;4.07;;;;;;;;;;1026533;28;20054;-77
2023/12/15 02:50:10;;;;;;;4.50;3.90;;;;;;;;;;1029851;28;20537;-77
2023/12/15 02:50:41;;;;;;;7.80;4.03;;;;;;;;;;1026132;28;20029;-77
2023/12/15 02:51:11;;;;;;;34.00;9.55;;;;;;;;;;1027430;28;20288;-77
2023/12/15 02:51:41;;;;;;;20.98;7.57;;;;;;;;;;1033316;28;20022;-77
2023/12/15 02:52:12;;;;;;;5.43;4.93;;;;;;;;;;1028105;28;20487;-77
2023/12/15 02:52:43;;;;;;;14.30;9.77;;;;;;;;;;1032135;28;20030;-76
2023/12/15 02:53:14;;;;;;;13.13;5.78;;;;;;;;;;1030859;28;20037;-76
2023/12/15 02:53:44;;;;;;;11.88;9.85;;;;;;;;;;1031326;28;20049;-76
2023/12/15 02:54:15;;;;;;;8.10;6.10;;;;;;;;;;1032484;28;20026;-77
2023/12/15 02:54:45;;;;;;;6.15;4.55;;;;;;;;;;1032065;28;20318;-77
2023/12/15 02:55:16;;;;;;;5.60;5.20;;;;;;;;;;1032750;28;20124;-77
2023/12/15 02:55:47;;;;;;;6.47;5.93;;;;;;;;;;1033228;28;20048;-75
2023/12/15 02:56:17;;;;;;;6.15;4.57;;;;;;;;;;1032121;28;20027;-76
2023/12/15 02:56:47;;;;;;;9.93;7.65;;;;;;;;;;1032193;28;20034;-77
2023/12/15 02:57:18;;;;;;;2.70;2.58;;;;;;;;;;1030727;28;20030;-76
2023/12/15 02:57:49;;;;;;;16.88;6.85;;;;;;;;;;1032357;28;20021;-79
2023/12/15 02:58:20;;;;;;;8.07;4.10;;;;;;;;;;1030235;28;20034;-76
2023/12/15 02:58:51;;;;;;;7.50;6.82;;;;;;;;;;1028377;28;20042;-75
2023/12/15 02:59:22;;;;;;;6.07;5.50;;;;;;;;;;1028147;28;20033;-77
2023/12/15 02:59:53;;;;;;;13.07;8.95;;;;;;;;;;1026398;28;20579;-77
2023/12/15 03:00:23;;;;;;;8.45;5.82;;;;;;;;;;1026286;28;20034;-77
2023/12/15 03:00:54;;;;;;;13.48;7.78;;;;;;;;;;1027685;28;20019;-77
2023/12/15 03:01:25;;;;;;;10.70;8.30;;;;;;;;;;1020973;28;20031;-77
2023/12/15 03:01:55;;;;;;;30.65;12.73;;;;;;;;;;1026586;28;20038;-77
2023/12/15 03:02:26;;;;;;;6.30;5.63;;;;;;;;;;1022991;28;20031;-76
2023/12/15 03:02:56;;;;;;;2.75;2.55;;;;;;;;;;1024572;28;20026;-76
2023/12/15 03:03:27;;;;;;;6.47;5.80;;;;;;;;;;1026653;28;20033;-76